Time;durP1;ratioP1;P1;durP2;ratioP2;P2;SDS_P1;SDS_P2;PMS_P1;PMS_P2;Temp;Humidity;BMP_temperature;BMP_pressure;BME280_temperature;BME280_humidity;BME280_pressure;Samples;Min_cycle;Max_cycle;Signal;HPM_P1;HPM_P2
2021/01/27 00:01:17;;;;;;;19.03;13.20;;;;;;;1.27;74.93;100663.03;5052870;28;20041;-73
2021/01/27 00:03:42;;;;;;;20.33;13.63;;;;;;;1.21;75.33;100662.84;5052850;28;20032;-72
2021/01/27 00:06:08;;;;;;;20.37;13.37;;;;;;;1.26;74.48;100665.63;5052475;28;20044;-73
2021/01/27 00:08:33;;;;;;;19.47;13.40;;;;;;;1.20;74.78;100671.47;5052780;28;20035;-73
2021/01/27 00:10:59;;;;;;;22.10;12.43;;;;;;;1.17;75.68;100662.69;5052801;28;20072;-73
2021/01/27 00:13:24;;;;;;;19.40;12.37;;;;;;;1.20;75.45;100657.59;5052826;28;20171;-73
2021/01/27 00:15:49;;;;;;;18.93;12.97;;;;;;;1.16;74.79;100677.41;5052277;28;20077;-74
2021/01/27 00:18:17;;;;;;;18.00;12.27;;;;;;;1.18;74.71;100669.66;5052637;28;20032;-73
2021/01/27 00:20:43;;;;;;;22.53;13.33;;;;;;;1.17;75.30;100662.69;5034711;28;20529;-73
2021/01/27 00:23:08;;;;;;;19.27;13.63;;;;;;;1.15;75.28;100673.03;5052570;28;20127;-72
2021/01/27 00:25:37;;;;;;;22.27;14.57;;;;;;;1.03;75.78;100657.91;5052166;28;20037;-73
2021/01/27 00:28:03;;;;;;;17.10;12.60;;;;;;;1.06;75.84;100650.22;5052470;28;20553;-73
2021/01/27 00:30:31;;;;;;;20.03;14.00;;;;;;;1.01;75.23;100651.75;5052525;28;20546;-73
2021/01/27 00:32:58;;;;;;;19.13;13.47;;;;;;;1.04;75.36;100656.19;5052408;28;20037;-73
2021/01/27 00:35:29;;;;;;;20.40;12.47;;;;;;;1.02;75.46;100657.84;5051885;28;20495;-72
2021/01/27 00:37:56;;;;;;;20.85;13.73;;;;;;;0.90;76.14;100658.31;5052329;28;20068;-73
2021/01/27 00:40:22;;;;;;;20.23;14.20;;;;;;;0.96;76.19;100662.84;5052198;28;20037;-73
2021/01/27 00:42:49;;;;;;;18.90;13.13;;;;;;;0.91;76.12;100664.41;5052256;28;20043;-73
2021/01/27 00:45:15;;;;;;;22.53;14.07;;;;;;;0.79;76.11;100660.53;5051765;28;20446;-73
2021/01/27 00:47:40;;;;;;;18.60;13.27;;;;;;;0.77;76.89;100657.00;5052156;28;20091;-73
2021/01/27 00:50:07;;;;;;;19.90;13.43;;;;;;;0.74;76.58;100667.28;5052014;28;20041;-73
2021/01/27 00:52:32;;;;;;;20.37;13.67;;;;;;;0.70;76.94;100670.59;5051944;28;20082;-74
2021/01/27 00:54:57;;;;;;;20.37;13.90;;;;;;;0.63;77.10;100664.31;5051703;28;20111;-72
2021/01/27 00:57:23;;;;;;;19.63;13.73;;;;;;;0.64;77.13;100667.78;5051977;28;20572;-73
2021/01/27 00:59:48;;;;;;;19.47;14.23;;;;;;;0.58;77.30;100660.66;5029303;28;20553;-73
2021/01/27 01:02:15;;;;;;;18.70;13.30;;;;;;;0.56;77.11;100661.44;5033259;28;20036;-74
2021/01/27 01:04:49;;;;;;;20.60;14.77;;;;;;;0.43;78.06;100662.69;5033201;28;20071;-73
2021/01/27 01:07:14;;;;;;;20.03;13.33;;;;;;;0.35;77.86;100672.78;5042225;28;20064;-73
2021/01/27 01:09:39;;;;;;;22.70;14.90;;;;;;;0.31;78.20;100670.91;5051710;28;20423;-73
2021/01/27 01:12:05;;;;;;;21.83;15.47;;;;;;;0.25;78.47;100668.09;5033942;28;20564;-73
2021/01/27 01:14:30;;;;;;;22.97;14.63;;;;;;;0.24;78.54;100663.72;5051505;28;20517;-73
2021/01/27 01:16:56;;;;;;;22.80;14.50;;;;;;;0.28;79.10;100663.00;5051351;28;20041;-73
2021/01/27 01:19:21;;;;;;;24.07;16.77;;;;;;;0.26;78.94;100655.97;5051499;28;20136;-73
2021/01/27 01:21:46;;;;;;;21.93;15.07;;;;;;;0.17;78.51;100661.72;5051572;28;20120;-73
2021/01/27 01:24:12;;;;;;;21.60;14.17;;;;;;;0.09;79.28;100658.84;5029720;28;20039;-73
2021/01/27 01:26:37;;;;;;;22.33;15.53;;;;;;;0.03;79.75;100661.22;5049393;28;20150;-73
2021/01/27 01:29:02;;;;;;;21.17;15.00;;;;;;;-0.01;79.92;100662.78;5051373;28;20379;-73
2021/01/27 01:31:28;;;;;;;26.23;15.30;;;;;;;-0.03;79.68;100667.06;5051423;28;20462;-73
2021/01/27 01:33:53;;;;;;;22.00;14.90;;;;;;;-0.08;80.23;100659.88;5051195;28;20041;-73
2021/01/27 01:36:18;;;;;;;22.13;14.73;;;;;;;-0.16;80.05;100657.00;5050963;28;20045;-73
2021/01/27 01:38:45;;;;;;;20.07;13.80;;;;;;;-0.19;80.45;100656.00;5051531;28;20048;-73
2021/01/27 01:41:10;;;;;;;22.03;14.97;;;;;;;-0.24;80.61;100653.22;5051205;28;20047;-73
2021/01/27 01:43:38;;;;;;;21.57;14.00;;;;;;;-0.30;80.69;100651.28;5051142;28;20037;-73
2021/01/27 01:46:15;;;;;;;19.90;13.17;;;;;;;-0.36;81.20;100648.44;5050788;28;20128;-73
2021/01/27 01:48:44;;;;;;;21.67;14.50;;;;;;;-0.43;81.40;100641.25;5051176;28;20041;-73
2021/01/27 01:51:33;;;;;;;29.37;16.60;;;;;;;-0.49;80.72;100641.00;5051153;28;20075;-73
2021/01/27 01:54:02;;;;;;;24.37;15.17;;;;;;;-0.56;81.04;100649.34;5050630;28;20064;-72
2021/01/27 01:56:32;;;;;;;23.27;13.67;;;;;;;-0.60;81.43;100650.03;5050628;28;20048;-72
2021/01/27 01:59:01;;;;;;;21.10;14.80;;;;;;;-0.61;81.50;100651.75;5050937;28;20041;-72
2021/01/27 02:01:27;;;;;;;22.97;15.43;;;;;;;-0.59;82.10;100652.72;5050815;28;20099;-73
2021/01/27 02:03:53;;;;;;;24.43;14.70;;;;;;;-0.55;81.64;100652.03;5051031;28;20032;-73
2021/01/27 02:06:20;;;;;;;19.90;13.17;;;;;;;-0.49;81.63;100653.97;5050733;28;20125;-73
2021/01/27 02:08:49;;;;;;;21.40;14.43;;;;;;;-0.42;81.44;100648.19;5050971;28;20041;-73
2021/01/27 02:11:17;;;;;;;21.47;13.67;;;;;;;-0.32;81.73;100652.91;5033218;28;20033;-73
2021/01/27 02:14:01;;;;;;;22.17;14.70;;;;;;;-0.23;80.77;100649.81;5054890;28;20044;-73
2021/01/27 02:16:40;;;;;;;22.87;14.70;;;;;;;-0.11;80.14;100650.28;5047723;28;20051;-73
2021/01/27 02:19:40;;;;;;;19.83;13.43;;;;;;;-0.08;80.46;100650.41;5054904;28;20075;-73
2021/01/27 02:22:42;;;;;;;22.07;13.80;;;;;;;-0.08;80.33;100645.22;5036980;28;20033;-73
2021/01/27 02:25:45;;;;;;;20.70;12.77;;;;;;;0.04;79.47;100649.09;5020129;28;20035;-73
2021/01/27 02:28:20;;;;;;;20.70;12.70;;;;;;;0.13;79.17;100650.34;5054684;28;20021;-73
2021/01/27 02:31:07;;;;;;;21.07;13.40;;;;;;;0.12;78.93;100650.28;5054737;28;20051;-73
2021/01/27 02:34:02;;;;;;;22.27;13.43;;;;;;;0.01;78.38;100643.81;5048698;28;20120;-73
2021/01/27 02:36:45;;;;;;;23.97;15.00;;;;;;;-0.11;79.37;100647.69;5026554;28;20449;-73
2021/01/27 02:39:13;;;;;;;20.83;12.90;;;;;;;-0.15;78.85;100648.41;5053663;28;20025;-74
2021/01/27 02:41:41;;;;;;;22.10;14.27;;;;;;;-0.29;78.71;100652.16;5036585;28;20029;-73
2021/01/27 02:44:13;;;;;;;22.10;13.90;;;;;;;-0.42;79.73;100642.13;5036645;28;20406;-73
2021/01/27 02:46:51;;;;;;;22.55;14.35;;;;;;;-0.58;78.90;100645.81;5054190;28;20124;-73
2021/01/27 02:49:35;;;;;;;21.20;12.77;;;;;;;-0.72;80.27;100647.84;5054618;28;20376;-73
2021/01/27 02:52:17;;;;;;;25.03;16.37;;;;;;;-0.78;80.85;100650.19;5054388;28;20123;-73
2021/01/27 02:54:53;;;;;;;25.13;14.98;;;;;;;-0.75;80.87;100658.09;5054102;28;20037;-73
2021/01/27 02:57:28;;;;;;;23.97;15.17;;;;;;;-0.70;80.35;100649.69;5045881;28;20041;-72
2021/01/27 03:00:00;;;;;;;27.83;17.50;;;;;;;-0.72;80.16;100642.66;5021482;22;20040;-73
2021/01/27 03:02:36;;;;;;;24.50;15.55;;;;;;;-0.75;79.83;100642.53;4944988;28;20550;-73
2021/01/27 03:05:16;;;;;;;24.87;15.97;;;;;;;-0.78;80.08;100637.25;4943528;28;20082;-73
2021/01/27 03:07:47;;;;;;;24.13;15.40;;;;;;;-0.78;80.59;100642.41;4941712;29;20564;-73
2021/01/27 03:10:22;;;;;;;26.83;16.77;;;;;;;-0.78;80.64;100642.41;4944464;28;20069;-73
2021/01/27 03:12:48;;;;;;;26.07;15.77;;;;;;;-0.85;80.76;100650.75;4944891;28;20054;-73
2021/01/27 03:15:14;;;;;;;24.73;14.67;;;;;;;-0.92;80.35;100642.72;4941616;29;20036;-73
2021/01/27 03:17:41;;;;;;;23.60;15.77;;;;;;;-0.96;81.08;100638.22;4941504;29;20042;-72
2021/01/27 03:20:21;;;;;;;22.00;13.80;;;;;;;-1.02;80.35;100642.25;4922986;29;20421;-72
2021/01/27 03:22:55;;;;;;;25.00;15.63;;;;;;;-1.09;80.87;100641.13;4941498;29;20043;-72
2021/01/27 03:25:24;;;;;;;23.07;15.03;;;;;;;-1.14;80.49;100637.47;4940647;29;20123;-73
2021/01/27 03:28:10;;;;;;;25.90;15.77;;;;;;;-1.21;81.52;100643.19;4941394;29;20135;-73
2021/01/27 03:30:37;;;;;;;27.10;16.50;;;;;;;-1.23;81.31;100644.81;4941363;29;20036;-73
2021/01/27 03:33:08;;;;;;;26.83;15.73;;;;;;;-1.27;81.44;100649.00;4942696;29;20078;-73
2021/01/27 03:35:40;;;;;;;29.30;16.88;;;;;;;-1.29;81.36;100642.84;4943366;29;20504;-73
2021/01/27 03:38:25;;;;;;;29.60;17.77;;;;;;;-1.32;81.45;100641.00;4941563;29;20426;-73
2021/01/27 03:40:54;;;;;;;24.53;15.40;;;;;;;-1.35;81.78;100651.25;4941173;29;20131;-73
2021/01/27 03:43:43;;;;;;;26.23;16.67;;;;;;;-1.34;81.62;100655.63;4940093;29;20050;-72
2021/01/27 03:46:17;;;;;;;26.10;15.90;;;;;;;-1.23;82.24;100657.75;4942964;29;20032;-72
2021/01/27 03:48:53;;;;;;;23.37;15.03;;;;;;;-1.11;81.79;100654.00;4944145;29;20069;-73
2021/01/27 03:51:20;;;;;;;26.23;15.50;;;;;;;-0.91;81.87;100649.69;4941022;29;20090;-72
2021/01/27 03:53:46;;;;;;;22.80;14.83;;;;;;;-0.73;81.08;100652.16;4940983;29;20498;-73
2021/01/27 03:56:29;;;;;;;25.13;15.83;;;;;;;-0.56;80.99;100655.41;4943073;29;20048;-73
2021/01/27 03:58:54;;;;;;;25.23;15.77;;;;;;;-0.42;80.53;100647.31;4943700;29;20058;-72
2021/01/27 04:01:22;;;;;;;26.20;15.67;;;;;;;-0.36;79.99;100651.03;4940849;29;20486;-73
2021/01/27 04:03:50;;;;;;;21.83;13.50;;;;;;;-0.30;80.05;100653.88;4939576;29;20054;-73
2021/01/27 04:06:15;;;;;;;23.17;14.03;;;;;;;-0.27;78.84;100656.56;4943836;29;20397;-73
2021/01/27 04:08:41;;;;;;;23.13;13.90;;;;;;;-0.24;78.92;100653.22;4943993;28;20054;-72
2021/01/27 04:11:07;;;;;;;21.17;12.53;;;;;;;-0.24;79.18;100650.63;4941991;29;20036;-73
2021/01/27 04:13:33;;;;;;;19.33;12.77;;;;;;;-0.25;78.52;100651.47;4940687;29;20047;-73
2021/01/27 04:15:59;;;;;;;23.13;14.00;;;;;;;-0.21;78.27;100645.56;4946492;28;20035;-72
2021/01/27 04:18:25;;;;;;;20.83;13.77;;;;;;;-0.21;78.86;100645.56;4945765;29;20043;-72
2021/01/27 04:20:50;;;;;;;19.97;12.23;;;;;;;-0.14;78.52;100641.50;4940529;29;20494;-73
2021/01/27 04:23:16;;;;;;;18.60;13.00;;;;;;;-0.14;78.36;100642.38;4943678;29;20054;-73
2021/01/27 04:25:41;;;;;;;20.13;12.93;;;;;;;-0.16;79.12;100648.34;4943490;28;20043;-73
2021/01/27 04:28:07;;;;;;;20.40;12.40;;;;;;;-0.20;78.69;100634.38;4941730;29;20382;-72
2021/01/27 04:30:34;;;;;;;21.60;12.70;;;;;;;-0.10;78.20;100635.63;4940330;29;20130;-73
2021/01/27 04:33:01;;;;;;;19.23;13.00;;;;;;;-0.05;78.82;100637.56;4941254;29;20098;-73
2021/01/27 04:35:26;;;;;;;21.70;12.87;;;;;;;0.07;78.33;100631.94;4943139;29;20062;-72
2021/01/27 04:37:52;;;;;;;22.33;12.40;;;;;;;0.13;78.05;100633.88;4943679;28;20679;-72
2021/01/27 04:40:28;;;;;;;19.60;13.00;;;;;;;0.09;77.91;100625.09;4940037;29;20040;-72
2021/01/27 04:42:54;;;;;;;18.60;11.43;;;;;;;0.17;77.50;100625.38;4940414;29;20042;-73
2021/01/27 04:45:20;;;;;;;18.53;12.13;;;;;;;0.16;77.96;100634.00;4943205;29;20587;-73
2021/01/27 04:48:11;;;;;;;18.60;12.13;;;;;;;0.25;77.39;100625.69;4943526;29;20118;-73
2021/01/27 04:50:45;;;;;;;18.80;11.60;;;;;;;0.32;77.48;100625.06;4940080;29;20040;-73
2021/01/27 04:53:28;;;;;;;18.23;12.63;;;;;;;0.35;77.65;100615.69;4942729;29;20397;-73
2021/01/27 04:56:16;;;;;;;18.77;11.83;;;;;;;0.40;77.69;100614.13;4941715;29;20043;-73
2021/01/27 04:58:52;;;;;;;19.33;12.10;;;;;;;0.50;77.00;100619.63;4939963;29;20048;-73
2021/01/27 05:01:29;;;;;;;17.87;12.20;;;;;;;0.58;77.51;100610.44;4942425;29;20035;-73
2021/01/27 05:04:12;;;;;;;20.53;12.20;;;;;;;0.60;76.52;100613.94;4940368;29;20039;-73
2021/01/27 05:06:43;;;;;;;18.52;12.60;;;;;;;0.64;77.51;100608.91;4942940;28;20104;-72
2021/01/27 05:09:13;;;;;;;21.10;13.55;;;;;;;0.70;76.50;100616.03;4940908;29;20043;-73
2021/01/27 05:11:40;;;;;;;18.80;12.17;;;;;;;0.73;76.96;100613.53;4940168;29;20050;-73
2021/01/27 05:14:07;;;;;;;19.80;12.80;;;;;;;0.83;76.40;100606.97;4941597;29;20051;-72
2021/01/27 05:16:32;;;;;;;16.77;10.57;;;;;;;0.87;75.94;100601.06;4941572;29;20117;-73
2021/01/27 05:19:01;;;;;;;19.27;12.47;;;;;;;0.82;76.12;100593.09;4942181;29;20460;-70
2021/01/27 05:21:30;;;;;;;17.97;11.17;;;;;;;0.83;76.51;100594.84;4939586;29;20035;-70
2021/01/27 05:23:56;;;;;;;16.87;12.10;;;;;;;0.85;76.09;100594.91;4939962;29;20039;-70
2021/01/27 05:26:27;;;;;;;19.60;12.63;;;;;;;0.86;76.28;100589.78;4942542;29;20054;-69
2021/01/27 05:29:03;;;;;;;16.30;11.07;;;;;;;0.91;75.95;100591.63;4941650;29;20042;-70
2021/01/27 05:32:05;;;;;;;18.70;12.23;;;;;;;0.90;75.96;100587.28;4939531;29;20042;-71
2021/01/27 05:34:37;;;;;;;19.93;13.07;;;;;;;0.96;75.73;100590.06;4939358;29;20039;-71
2021/01/27 05:37:12;;;;;;;19.60;12.30;;;;;;;0.92;76.12;100593.38;4940485;28;20043;-71
2021/01/27 05:39:40;;;;;;;19.17;12.50;;;;;;;0.89;76.05;100591.56;4941371;29;20127;-70
2021/01/27 05:42:31;;;;;;;19.00;13.23;;;;;;;0.87;76.00;100586.34;4941185;28;20043;-71
2021/01/27 05:45:18;;;;;;;19.83;12.83;;;;;;;0.93;76.16;100584.78;4939857;29;20042;-70
2021/01/27 05:47:43;;;;;;;21.27;13.00;;;;;;;0.99;75.81;100580.66;4976902;28;20054;-71
2021/01/27 05:50:39;;;;;;;18.93;12.53;;;;;;;0.93;75.39;100588.25;4940324;29;20115;-71
2021/01/27 05:53:14;;;;;;;22.57;14.73;;;;;;;0.81;75.79;100590.44;4940938;29;20100;-70
2021/01/27 05:56:01;;;;;;;21.30;13.33;;;;;;;0.72;76.10;100583.22;4942283;29;20035;-71
2021/01/27 05:58:30;;;;;;;22.20;13.70;;;;;;;0.67;77.19;100578.69;4940796;29;20594;-70
2021/01/27 06:01:13;;;;;;;19.67;13.37;;;;;;;0.62;76.78;100581.13;4936490;29;20039;-71
2021/01/27 06:03:48;;;;;;;24.67;15.17;;;;;;;0.65;77.20;100589.94;4947534;28;20142;-70
2021/01/27 06:06:14;;;;;;;23.90;14.00;;;;;;;0.69;77.10;100574.44;4945582;29;20039;-71
2021/01/27 06:08:49;;;;;;;23.03;15.10;;;;;;;0.70;76.95;100576.19;4944187;28;20383;-71
2021/01/27 06:11:15;;;;;;;23.80;14.97;;;;;;;0.68;77.49;100575.25;4943565;29;20053;-71
2021/01/27 06:13:40;;;;;;;24.37;14.63;;;;;;;0.61;77.30;100577.66;4950112;29;20031;-71
2021/01/27 06:16:17;;;;;;;22.00;14.67;;;;;;;0.48;76.91;100569.38;4940175;29;20062;-71
2021/01/27 06:18:43;;;;;;;22.97;14.67;;;;;;;0.33;78.04;100570.59;4938953;29;20027;-70
2021/01/27 06:21:39;;;;;;;25.10;16.17;;;;;;;0.17;77.95;100574.34;4940954;29;20087;-71
2021/01/27 06:24:37;;;;;;;27.73;16.87;;;;;;;0.06;78.64;100575.69;4945426;28;20066;-70
2021/01/27 06:27:32;;;;;;;26.00;16.40;;;;;;;-0.03;78.41;100576.25;4944286;29;20229;-70
2021/01/27 06:30:22;;;;;;;24.23;14.60;;;;;;;-0.09;78.41;100575.09;4939173;29;20031;-70
2021/01/27 06:33:07;;;;;;;24.33;15.57;;;;;;;-0.20;78.88;100585.09;4948571;29;20044;-70
2021/01/27 06:36:05;;;;;;;23.63;15.07;;;;;;;-0.33;79.92;100590.63;4940354;29;20489;-70
2021/01/27 06:38:53;;;;;;;24.03;15.03;;;;;;;-0.43;79.67;100589.38;4941649;29;20400;-71
2021/01/27 06:41:47;;;;;;;26.03;15.17;;;;;;;-0.50;79.45;100595.13;4943736;29;20031;-71
2021/01/27 06:44:49;;;;;;;25.20;15.07;;;;;;;-0.55;80.47;100595.00;4941398;28;20051;-71
2021/01/27 06:47:52;;;;;;;29.73;18.37;;;;;;;-0.57;80.83;100595.75;4937310;28;20425;-71
2021/01/27 06:50:39;;;;;;;28.55;16.88;;;;;;;-0.46;81.00;100607.41;4946326;29;20106;-71
2021/01/27 06:53:23;;;;;;;28.07;16.87;;;;;;;-0.34;80.61;100599.22;4940075;29;20496;-70
2021/01/27 06:56:07;;;;;;;23.33;14.83;;;;;;;-0.33;80.14;100596.69;4941617;29;20432;-70
2021/01/27 06:58:59;;;;;;;27.00;17.10;;;;;;;-0.32;80.64;100607.94;4943345;28;20485;-70
2021/01/27 07:01:27;;;;;;;27.75;15.90;;;;;;;-0.35;80.85;100602.66;4947335;29;20534;-70
2021/01/27 07:04:21;;;;;;;26.00;16.90;;;;;;;-0.38;80.72;100597.34;4952631;28;20035;-71
2021/01/27 07:07:37;;;;;;;27.17;16.07;;;;;;;-0.42;80.07;100595.44;4956852;28;20051;-70
2021/01/27 07:10:41;;;;;;;26.57;17.67;;;;;;;-0.42;80.12;100595.44;5009147;28;20036;-70
2021/01/27 07:13:38;;;;;;;26.77;16.87;;;;;;;-0.40;80.83;100599.00;4949665;28;20169;-71
2021/01/27 07:16:11;;;;;;;24.70;15.97;;;;;;;-0.37;80.29;100601.69;4941002;29;20116;-71
2021/01/27 07:19:36;;;;;;;29.55;17.73;;;;;;;-0.39;81.14;100595.56;4941929;29;20032;-70
2021/01/27 07:22:10;;;;;;;27.87;17.63;;;;;;;-0.33;81.47;100593.22;4978114;28;20043;-70
2021/01/27 07:24:45;;;;;;;31.30;17.97;;;;;;;-0.26;81.18;100597.84;4947309;29;20050;-70
2021/01/27 07:27:19;;;;;;;28.90;18.17;;;;;;;-0.14;81.28;100598.28;4949057;29;20386;-70
2021/01/27 07:30:08;;;;;;;30.17;18.53;;;;;;;-0.05;81.08;100601.22;4941357;29;20043;-70
2021/01/27 07:32:41;;;;;;;26.43;16.97;;;;;;;0.09;80.50;100598.28;4941292;29;20036;-70
2021/01/27 07:35:13;;;;;;;26.60;16.43;;;;;;;0.20;79.94;100597.81;4942778;29;20051;-69
2021/01/27 07:37:45;;;;;;;35.40;22.20;;;;;;;0.34;80.40;100600.94;4948692;28;20513;-71
2021/01/27 07:40:24;;;;;;;26.20;16.45;;;;;;;0.44;79.61;100599.53;4945529;29;20501;-70
2021/01/27 07:43:01;;;;;;;23.90;15.43;;;;;;;0.59;79.04;100604.41;4948675;29;20050;-70
2021/01/27 07:45:34;;;;;;;20.40;14.27;;;;;;;0.70;78.93;100603.06;4938302;28;20038;-71
2021/01/27 07:48:19;;;;;;;26.30;17.15;;;;;;;0.85;78.57;100602.72;4952087;29;21382;-70
2021/01/27 07:50:52;;;;;;;27.10;17.50;;;;;;;0.97;78.31;100597.94;4943735;29;20074;-70
2021/01/27 07:53:38;;;;;;;27.67;17.03;;;;;;;1.16;78.07;100594.22;4940135;28;20032;-70
2021/01/27 07:56:19;;;;;;;25.77;17.00;;;;;;;1.28;77.88;100599.84;4942370;29;20105;-70
2021/01/27 07:58:53;;;;;;;30.20;16.77;;;;;;;1.40;77.13;100599.31;4944136;28;20519;-70
2021/01/27 08:01:37;;;;;;;31.47;17.83;;;;;;;1.29;77.21;100593.78;4944446;28;20043;-70
2021/01/27 08:04:23;;;;;;;32.27;19.20;;;;;;;1.42;77.41;100591.59;4951753;29;20114;-70
2021/01/27 08:06:52;;;;;;;32.03;18.77;;;;;;;1.44;76.42;100593.41;4944141;29;20505;-70
2021/01/27 08:09:31;;;;;;;29.17;18.67;;;;;;;1.56;76.48;100598.09;4943437;28;20054;-69
2021/01/27 08:12:15;;;;;;;26.33;17.27;;;;;;;1.60;76.23;100591.25;4942999;29;20039;-70
2021/01/27 08:14:59;;;;;;;26.05;17.55;;;;;;;1.66;75.44;100597.53;4951627;28;20035;-70
2021/01/27 08:17:55;;;;;;;22.80;15.47;;;;;;;1.73;75.81;100598.63;4940504;29;20040;-70
2021/01/27 08:20:33;;;;;;;23.77;15.73;;;;;;;1.83;75.83;100600.66;4941812;28;20047;-70
2021/01/27 08:23:08;;;;;;;22.03;15.37;;;;;;;1.93;75.54;100604.41;4951369;28;20051;-71
2021/01/27 08:25:53;;;;;;;24.88;16.75;;;;;;;2.00;75.19;100598.56;4951309;28;20039;-69
2021/01/27 08:28:37;;;;;;;23.60;16.13;;;;;;;2.04;74.99;100605.59;4939667;29;20027;-70
2021/01/27 08:31:16;;;;;;;22.23;15.15;;;;;;;2.08;74.40;100601.41;4940229;29;20029;-70
2021/01/27 08:33:49;;;;;;;23.63;14.85;;;;;;;2.11;74.58;100607.56;4951452;28;20138;-69
2021/01/27 08:36:16;;;;;;;25.88;16.35;;;;;;;2.07;74.24;100599.59;4940714;28;20043;-70
2021/01/27 08:38:44;;;;;;;18.65;13.27;;;;;;;2.11;74.33;100602.34;4940432;29;20476;-71
2021/01/27 08:41:51;;;;;;;19.13;14.00;;;;;;;2.16;74.13;100598.16;4942435;29;20496;-70
2021/01/27 08:44:19;;;;;;;21.45;14.35;;;;;;;2.24;74.26;100602.72;4936369;28;20043;-70
2021/01/27 08:46:59;;;;;;;18.33;12.43;;;;;;;2.33;73.71;100602.97;4942156;29;20046;-70
2021/01/27 08:49:37;;;;;;;23.85;16.48;;;;;;;2.46;73.79;100596.38;4941798;28;20036;-70
2021/01/27 08:52:08;;;;;;;21.67;15.10;;;;;;;2.46;73.67;100591.16;4941253;29;20044;-70
2021/01/27 08:54:39;;;;;;;19.55;13.82;;;;;;;2.49;74.05;100593.84;4943184;29;20495;-70
2021/01/27 08:57:40;;;;;;;24.58;13.43;;;;;;;2.66;73.12;100587.38;4941449;29;20039;-70
2021/01/27 09:00:33;;;;;;;20.33;13.63;;;;;;;2.83;72.94;100585.25;4941397;29;20055;-70
2021/01/27 09:03:00;;;;;;;23.30;15.68;;;;;;;2.98;72.70;100579.53;4942315;29;20043;-70
2021/01/27 09:05:26;;;;;;;17.95;12.48;;;;;;;3.13;72.07;100581.63;4939693;29;20055;-71
2021/01/27 09:08:22;;;;;;;18.35;12.75;;;;;;;3.16;71.37;100579.09;4940015;28;20101;-70
2021/01/27 09:10:54;;;;;;;21.17;13.65;;;;;;;3.24;71.11;100573.22;4939769;29;20052;-70
2021/01/27 09:13:35;;;;;;;20.35;13.02;;;;;;;3.33;70.57;100576.88;4940146;29;20472;-70
2021/01/27 09:16:05;;;;;;;21.13;14.50;;;;;;;3.40;70.21;100574.47;4940527;29;20391;-70
2021/01/27 09:18:32;;;;;;;23.38;14.90;;;;;;;3.39;70.07;100570.09;4943085;28;20390;-69
2021/01/27 09:21:24;;;;;;;23.05;16.65;;;;;;;3.40;69.58;100568.38;4941817;28;20485;-70
2021/01/27 09:24:01;;;;;;;19.45;13.40;;;;;;;3.51;69.79;100564.25;4945147;28;20052;-70
2021/01/27 09:26:49;;;;;;;17.27;12.27;;;;;;;3.62;69.89;100562.81;4939373;29;20055;-70
2021/01/27 09:29:18;;;;;;;21.23;15.63;;;;;;;3.69;69.75;100562.09;4938016;29;20165;-71
2021/01/27 09:31:44;;;;;;;21.55;15.57;;;;;;;3.71;69.66;100567.34;4939338;29;20035;-70
2021/01/27 09:34:32;;;;;;;23.25;15.88;;;;;;;3.73;68.77;100570.88;4941862;28;20525;-69
2021/01/27 09:37:04;;;;;;;21.85;15.77;;;;;;;3.79;68.76;100575.34;4949251;28;20065;-70
2021/01/27 09:39:32;;;;;;;24.77;16.15;;;;;;;3.84;69.24;100577.19;4939305;29;20121;-69
2021/01/27 09:42:03;;;;;;;18.17;12.75;;;;;;;3.82;68.78;100567.56;4940010;29;20510;-70
2021/01/27 09:44:36;;;;;;;18.33;13.30;;;;;;;3.81;67.29;100568.44;4942451;29;20050;-70
2021/01/27 09:47:07;;;;;;;25.15;16.63;;;;;;;3.69;68.62;100566.41;4941135;29;20562;-69
2021/01/27 09:49:39;;;;;;;26.20;17.38;;;;;;;3.74;68.78;100560.44;4939202;29;20451;-71
2021/01/27 09:52:06;;;;;;;17.02;11.25;;;;;;;3.68;67.41;100564.66;4936325;28;20044;-70
2021/01/27 09:54:32;;;;;;;17.30;12.43;;;;;;;3.58;67.64;100567.91;4939239;29;20028;-70
2021/01/27 09:57:00;;;;;;;18.13;12.10;;;;;;;3.65;67.74;100559.38;4939372;29;20058;-70
2021/01/27 09:59:27;;;;;;;17.65;12.25;;;;;;;3.69;67.55;100550.75;4944891;28;20039;-70
2021/01/27 10:01:52;;;;;;;19.17;11.60;;;;;;;3.66;67.41;100548.97;4944008;29;20100;-70
2021/01/27 10:04:33;;;;;;;15.88;11.43;;;;;;;3.56;66.39;100547.00;4946942;28;20047;-70
2021/01/27 10:07:10;;;;;;;18.73;12.35;;;;;;;3.59;67.19;100541.88;4939145;28;20407;-70
2021/01/27 10:10:04;;;;;;;17.20;11.50;;;;;;;3.65;66.81;100548.94;4944520;29;20044;-71
2021/01/27 10:12:31;;;;;;;17.13;11.88;;;;;;;3.77;66.90;100538.75;4950630;28;20043;-70
2021/01/27 10:15:09;;;;;;;15.05;11.60;;;;;;;3.77;66.28;100533.53;4943844;29;20035;-69
2021/01/27 10:17:35;;;;;;;15.38;11.38;;;;;;;3.73;65.52;100539.56;4943580;29;20101;-70
2021/01/27 10:20:15;;;;;;;17.40;11.32;;;;;;;3.69;66.30;100535.09;4939698;29;20040;-70
2021/01/27 10:22:43;;;;;;;13.15;9.95;;;;;;;3.45;65.67;100531.09;4941179;29;20418;-70
2021/01/27 10:25:31;;;;;;;17.13;11.55;;;;;;;3.38;66.50;100530.91;4949586;28;20110;-70
2021/01/27 10:28:17;;;;;;;14.18;10.45;;;;;;;3.31;66.15;100527.31;4941447;29;20047;-70
2021/01/27 10:30:47;;;;;;;13.77;10.13;;;;;;;3.27;66.37;100525.44;4938830;29;20043;-70
2021/01/27 10:33:48;;;;;;;13.45;9.07;;;;;;;3.15;66.64;100519.97;4942513;29;20070;-70
2021/01/27 10:36:43;;;;;;;13.18;9.63;;;;;;;3.07;67.34;100528.50;4941132;29;20047;-70
2021/01/27 10:39:23;;;;;;;14.07;9.75;;;;;;;2.94;67.58;100510.78;4943989;29;20082;-70
2021/01/27 10:42:08;;;;;;;13.93;9.10;;;;;;;2.97;67.18;100513.47;4946959;29;20560;-70
2021/01/27 10:44:37;;;;;;;13.77;9.65;;;;;;;2.92;67.48;100507.25;4933413;29;20059;-71
2021/01/27 10:47:08;;;;;;;12.25;8.98;;;;;;;2.88;67.87;100510.63;4942847;29;20129;-70
2021/01/27 10:49:39;;;;;;;13.18;9.85;;;;;;;2.77;67.66;100507.75;4945134;29;20508;-70
2021/01/27 10:52:06;;;;;;;12.63;8.57;;;;;;;2.82;67.37;100508.75;4943720;28;20039;-70
2021/01/27 10:54:33;;;;;;;13.18;9.40;;;;;;;2.82;67.76;100500.03;4941915;29;20044;-70
2021/01/27 10:56:58;;;;;;;14.32;9.13;;;;;;;2.83;67.07;100500.09;4942118;29;20044;-70
2021/01/27 10:59:24;;;;;;;14.18;8.95;;;;;;;2.83;67.25;100494.00;4944704;28;20035;-70
2021/01/27 11:01:50;;;;;;;13.77;10.15;;;;;;;2.78;67.05;100491.28;4944964;28;20043;-70
2021/01/27 11:04:15;;;;;;;14.07;9.68;;;;;;;2.82;67.43;100487.88;4942047;29;20062;-69
2021/01/27 11:06:43;;;;;;;11.02;8.32;;;;;;;2.85;67.18;100485.34;4941352;29;20048;-71
2021/01/27 11:09:08;;;;;;;13.43;9.30;;;;;;;2.93;67.34;100487.28;4950621;29;20547;-70
2021/01/27 11:11:34;;;;;;;13.40;9.18;;;;;;;2.95;67.96;100481.25;4947757;28;20036;-70
2021/01/27 11:13:59;;;;;;;12.40;8.15;;;;;;;3.02;66.82;100479.69;4941934;29;20032;-70
2021/01/27 11:16:24;;;;;;;12.35;9.32;;;;;;;3.04;66.86;100473.66;4940239;29;20040;-70
2021/01/27 11:18:50;;;;;;;12.18;8.70;;;;;;;3.09;66.88;100471.13;4951264;29;20035;-70
2021/01/27 11:21:15;;;;;;;12.38;8.57;;;;;;;3.18;66.58;100470.50;4941888;28;20094;-70
2021/01/27 11:23:40;;;;;;;11.68;8.15;;;;;;;3.21;66.06;100468.81;4941399;29;20046;-71
2021/01/27 11:26:06;;;;;;;11.23;7.47;;;;;;;3.28;65.52;100467.25;4939949;29;20036;-70
2021/01/27 11:28:31;;;;;;;11.00;8.35;;;;;;;3.22;65.65;100468.00;4940947;29;20051;-70
2021/01/27 11:30:57;;;;;;;13.63;8.40;;;;;;;3.33;65.67;100467.31;4941478;29;20106;-70
2021/01/27 11:33:24;;;;;;;9.60;6.97;;;;;;;3.37;64.95;100463.94;4944543;29;20078;-71
2021/01/27 11:35:49;;;;;;;9.45;6.93;;;;;;;3.42;64.77;100463.19;4944517;28;20035;-70
2021/01/27 11:38:15;;;;;;;10.40;7.50;;;;;;;3.50;65.41;100469.47;4941686;29;20040;-70
2021/01/27 11:40:41;;;;;;;12.82;7.97;;;;;;;3.57;64.12;100451.34;4940934;29;20055;-70
2021/01/27 11:43:06;;;;;;;11.10;6.85;;;;;;;3.63;63.84;100460.16;4942641;29;20072;-69
2021/01/27 11:45:31;;;;;;;11.35;6.93;;;;;;;3.73;62.40;100448.19;4943276;28;20039;-71
2021/01/27 11:47:57;;;;;;;9.13;6.22;;;;;;;3.77;63.19;100464.78;4943761;29;20101;-71